Historyczne dane pomiarowe

Dodano dane terminowe – wersja testowa.

Dane z okresu 1951-2019

Wersja bazy: 1.34 [2019-03-16, lista zmian], aktualizacja planowana na 2019-04-15

Dane meteo z obszaru Polski uzyskane na podstawie danych udostępnionych przez Instytut Meteorologii i Gospodarki Wodnej – Państwowy Instytut Badawczy.

 

Wybierz Datę:    

       

TemperaturaWilgotnośćWiatrCiśnienieOpadyŚniegCzas trwania zjawisk
 Stacja t tx tn tng RH VA  wxwx mslp ppp RRR   cm mm wxwxwxwxwxwxwx
2019-09-30 4.4 8.0 0.5- 85.0 7.1 6.9 13.1 18.3 3.2- 791.9 4.6 4.6 0.0- 0.0 1.0 3.5 0.3 0.2 7.7---
2019-09-29 3.8 6.6 2.0- 85.9 6.9 6.5 10.8 12.2 3.7- 797.5 0.0 0.0 0.0- 0.0 5.1--- 2.6---
2019-09-28 4.6 7.1 2.4- 87.5 7.5 6.3 8.0 6.2 0.0- 800.2 1.6 1.6 0.0- 0.0 1.3 3.5-- 3.4---
2019-09-27 4.7 8.6 2.1- 91.3 7.8 6.0 5.3 3.3 0.3- 800.6 0.5 0.0 0.5- 0.0 5.9 0.7-- 9.1- 2.0-
2019-09-26 3.2 6.2 2.1- 95.1 7.3 7.4 3.6 0.0 0.0- 797.4 2.0 2.0 0.0- 0.0 2.9 1.4-- 17.2---
2019-09-25 4.6 7.0 3.9- 97.3 8.2 7.8 5.0 0.0 0.0- 795.8 3.4 0.1 3.3- 0.0 0.0 8.9-- 21.8---
2019-09-24 7.5 11.7 5.7- 57.0 6.0 4.4 2.8 0.0 0.0- 799.3 0.9 0.0 0.9- 0.0 9.1--- 0.8---
2019-09-23 6.6 8.6 5.7- 76.4 7.4 6.6 3.9 0.0 0.0- 800.2 0.6 0.6 0.0- 0.0 0.1 0.8-- 5.0---
2019-09-22 7.7 10.6 5.6- 54.1 5.7 0.5 4.6 0.0 0.0- 803.3 0.0 0.0 0.0- 0.0 11.7-------
2019-09-21 2.2 6.7 -4.5- 82.1 5.9 2.9 2.9 0.0 0.0- 806.1 0.0 0.0 0.0 2 0.0 11.8-------
2019-09-20 -2.9 -1.8 -3.8- 95.5 4.7 7.9 4.8 0.0 0.0- 804.8 0.1 0.1 0.0 3 0.0 0.1- 0.9- 17.3---
2019-09-19 -3.2 -1.4 -4.6- 96.0 4.6 7.6 4.5 0.0 0.0- 802.7 3.0 1.7 1.3 2 0.0 1.4- 5.3- 18.1---
2019-09-18 -3.0 1.6 -4.9- 97.4 4.8 7.5 6.5 4.7 0.0- 799.1 2.7 0.2 2.5 1 0.0 3.3- 0.9- 16.6---
2019-09-17 3.8 7.3 1.5- 89.1 7.2 6.0 8.5 7.7 0.2- 797.3 4.3 0.0 4.3- 0.0 6.0 4.7 2.3- 11.8---
2019-09-16 7.6 11.7 5.8- 82.6 8.5 7.1 7.3 5.5 0.0- 803.3 5.1 0.0 5.1- 0.0 7.5 3.7-- 2.4---
2019-09-15 8.9 12.5 4.3- 21.6 2.6 4.1 5.4 0.0 0.0- 808.1 0.0 0.0 0.0- 0.0 12.0-------
2019-09-14 4.2 7.4 -0.7- 84.1 7.0 5.0 4.0 0.0 0.0- 811.6 0.0 0.0 0.0- 0.0 9.5 2.5-- 8.3---
2019-09-13 7.5 11.6 4.9- 85.9 8.9 4.3 3.3 0.0 0.0- 812.4 6.0 0.0 6.0- 0.0 8.8--- 6.2 3.0--
2019-09-12 7.7 11.5 5.3- 88.8 9.3 3.4 2.3 0.0 0.0- 811.8 0.0 0.0 0.0- 0.0 8.5--- 4.3 3.0--
2019-09-11 7.9 11.6 3.9- 57.8 6.2 4.1 3.4 0.0 0.0- 808.2 0.0 0.0 0.0- 0.0 12.3-------
2019-09-10 4.2 8.6 0.6- 87.0 7.2 6.6 5.3 4.0 0.2- 802.7 0.0 0.0 0.0- 0.0 9.7--- 7.9 3.0--
2019-09-09 5.9 9.1 0.2- 95.6 8.9 7.9 10.8 17.7 1.5- 797.9 33.8 33.3 0.5- 0.0 0.3 10.6- 0.9 20.9-- 4.1
2019-09-08 6.1 7.2 4.6- 96.1 9.1 6.9 6.4 2.8 0.0- 802.2 7.9 0.0 7.9- 0.0 0.5 4.1-- 8.6---
2019-09-07 7.2 10.2 5.6- 88.8 9.0 7.4 4.8 0.8 0.0- 803.2 15.4 4.4 11.0- 0.0 0.4 2.1-- 9.3---
2019-09-06 6.1 8.2 3.9- 95.4 8.9 7.8 4.1 0.0 0.0- 805.7 0.8 0.8 0.0- 0.0 0.4 5.1-- 16.2---
2019-09-05 7.9 12.5 4.3- 82.0 8.8 3.3 3.1 0.0 0.0- 802.3 2.7 0.0 2.7- 0.0 10.4--- 3.8 3.0--
2019-09-04 4.6 8.4 1.2- 86.9 7.4 4.5 4.9 0.0 0.0- 804.6 0.0 0.0 0.0- 0.0 6.2--- 0.7 4.0--
2019-09-03 2.8 7.5 1.2- 99.0 7.4 7.1 6.6 0.2 0.0- 804.9 11.3 11.3 0.0- 0.0 1.2 13.2-- 18.7---
2019-09-02 9.9 12.8 7.5- 89.5 10.9 6.6 5.0 0.0 0.0- 804.1 10.5 1.5 9.0- 0.0 1.2 7.8-- 10.6---
2019-09-01 13.4 16.1 11.0- 72.5 11.1 3.3 5.9 0.0 0.0- 804.6 0.0 0.0 0.0- 0.0 9.9------ 0.5
2019-08-31 13.3 15.3 11.9- 69.5 10.6 3.5 4.0 0.0 0.0- 808.8 2.0 2.0 0.0- 0.0 7.0 1.6------
2019-08-30 13.3 16.1 10.8- 72.9 11.2 4.5 2.6 0.0 0.0- 810.5 18.1 18.1 0.0- 0.0 4.1 4.1-- 1.2-- 8.0
2019-08-29 13.9 17.9 12.1- 72.8 11.5 4.4 4.1 0.0 0.0- 809.4 0.0 0.0 0.0- 0.0 5.8 0.6----- 3.5
2019-08-28 13.1 16.6 10.7- 84.1 12.7 3.1 6.1 0.2 0.0- 809.5 0.5 0.5 0.0- 0.0 7.6 0.5----- 2.3
2019-08-27 13.2 16.7 11.5- 79.6 12.1 4.8 4.3 0.0 0.0- 809.9 0.0 0.0 0.0- 0.0 7.7-------
2019-08-26 13.5 18.0 10.9- 73.6 11.3 5.1 4.6 0.0 0.0- 810.4 7.0 7.0 0.0- 0.0 7.5 1.5-- 0.9-- 4.3
2019-08-25 13.7 17.6 11.0- 73.5 11.5 5.4 2.6 0.0 0.0- 810.5 4.1 4.1 0.0- 0.0 7.0 0.7----- 2.3
2019-08-24 13.1 16.3 11.2- 82.6 12.4 4.9 2.1 0.0 0.0- 811.3 3.0 3.0 0.0- 0.0 6.1 1.5--- 2.0- 1.0
2019-08-23 12.2 15.2 10.5- 86.5 12.3 6.3 2.5 0.0 0.0- 811.9 4.4 4.4 0.0- 0.0 3.6 1.6-- 5.2-- 1.6
2019-08-22 10.8 12.4 6.0- 91.6 11.8 6.5 4.4 0.0 0.0- 811.0 7.7 7.7 0.0- 0.0 3.6 2.3-- 12.3-- 3.4
2019-08-21 10.8 14.8 6.3- 92.5 12.0 7.0 5.6 3.0 0.0- 809.7 2.3 2.0 0.3- 0.0 3.5 4.6-- 13.8---
2019-08-20 13.3 15.9 11.6- 82.5 12.5 6.3 6.6 5.3 0.0- 808.7 0.2 0.2 0.0- 0.0 4.5 0.5-- 1.4---
2019-08-19 14.8 18.1 11.6- 67.3 11.2 2.9 6.0 0.0 0.0- 806.8 0.0 0.0 0.0- 0.0 12.3-------
2019-08-18 10.6 14.7 7.2- 81.0 10.4 5.5 7.1 2.7 0.0- 803.2 0.0 0.0 0.0- 0.0 5.8-------
2019-08-17 7.8 10.7 5.0- 88.3 9.4 3.6 4.0 0.0 0.0- 802.8 0.0 0.0 0.0- 0.0 5.8--- 5.2---
2019-08-16 6.3 8.5 4.5- 88.9 8.5 6.8 2.1 0.0 0.0- 802.1 0.8 0.8 0.0- 0.0 1.5 0.9-- 4.7-- 0.5
2019-08-15 5.1 10.3 2.2- 83.0 7.2 4.1 3.5 0.0 0.0- 801.6 0.0 0.0 0.0- 0.0 8.5-------
2019-08-14 4.1 9.7 1.9- 97.0 8.0 6.8 8.0 2.7 0.0- 800.7 14.6 14.6 0.0- 0.0 2.8 11.5-- 14.0---
2019-08-13 11.1 14.9 8.9- 96.1 12.8 7.4 4.8 1.3 0.0- 802.9 27.8 8.3 19.5- 0.0 1.5 7.0-- 16.5-- 0.8
2019-08-12 13.9 16.3 12.3- 93.4 14.8 6.3 7.8 6.2 0.0- 805.0 0.2 0.0 0.2- 0.0 2.6--- 3.6---
2019-08-11 13.0 16.3 10.1- 73.6 10.9 4.6 6.5 4.7 0.0- 806.6 0.0 0.0 0.0- 0.0 8.7 1.1-- 1.1---
2019-08-10 14.2 19.3 9.8- 76.5 12.5 5.6 4.9 0.0 0.0- 805.3 28.3 0.0 28.3- 0.0 8.8 3.6-- 4.7-- 0.2
2019-08-09 10.9 16.1 7.3- 74.6 9.5 5.6 3.8 0.0 0.0- 803.5 0.0 0.0 0.0- 0.0 8.3-------
2019-08-08 9.2 13.1 7.4- 94.9 11.0 7.1 4.9 0.0 0.0- 800.3 0.4 0.4 0.0- 0.0 3.4 1.2-- 8.2-- 0.7
2019-08-07 11.5 13.9 9.7- 93.9 12.7 7.0 8.3 5.0 0.0- 800.4 15.8 3.0 12.8- 0.0 5.5 1.6-- 3.6-- 1.6
2019-08-06 10.6 15.0 6.8- 88.0 11.1 7.4 4.9 1.0 0.0- 802.0 0.0 0.0 0.0- 0.0 5.5 1.6-- 2.3---
2019-08-05 8.4 12.7 5.2- 79.8 8.7 5.6 4.8 0.0 0.0- 801.9 6.1 2.4 3.7- 0.0 6.8 0.8-- 0.9---
2019-08-04 5.3 9.6 3.4- 96.8 8.6 7.0 5.6 0.0 0.0- 800.5 8.9 8.9 0.0- 0.0 2.4 0.9-- 9.0---
2019-08-03 5.8 8.0 3.7- 99.5 9.1 7.8 5.1 0.0 0.0- 798.1 12.2 12.2 0.0- 0.0 0.3 2.6-- 22.7---
2019-08-02 8.6 13.2 6.7- 86.4 9.6 5.9 2.6 0.0 0.0- 801.0 1.8 0.0 1.8- 0.0 5.9--- 4.4---
101.2 ms

 

Źródłem pochodzenia danych jest Instytut Meteorologii i Gospodarki Wodnej – Państwowy Instytut Badawczy. Dane Instytutu Meteorologii i Gospodarki Wodnej – Państwowego Instytutu Badawczego zostały przetworzone.

Dane źródłowe można odnaleźć na stronie https://dane.imgw.pl